Walden, Minnesota
Current Conditions -  °F | °C
As of 6:14 PM on Thursday 27 Nov 2014 (Local Time) from KPWC Reporting Station
Clear Clear  
Wind Chill: -6°   Ceiling: Unl
Heat Index:   Visibility: 10mi
Dew Point: -2°   Wind: 5mph
Humidity: 78%   Direction: 130°SE
Pressure: 30.29"   Gusts: NA
Location:  46.6535°N, 94.5389°W
Report Text: KPWC 280014Z AUTO 13004KT 10SM CLR M16/M19 A3029 RMK AO2
Loading
Personal Weather Stations






























Interactive Weather Map New forecast layout! Learn more

10-Day Weather Forecast

Advertisements
Track Severe Weather on mobile